sensor_id;sensor_type;location;lat;lon;timestamp;temperature;humidity
80214;DHT22;69531;37.974;23.708;2023-05-07T00:01:28;23.30;27.60
80214;DHT22;69531;37.974;23.708;2023-05-07T00:03:54;23.30;27.60
80214;DHT22;69531;37.974;23.708;2023-05-07T00:06:19;23.30;27.60
80214;DHT22;69531;37.974;23.708;2023-05-07T00:08:45;23.30;27.60
80214;DHT22;69531;37.974;23.708;2023-05-07T00:11:11;23.30;27.60
80214;DHT22;69531;37.974;23.708;2023-05-07T00:13:36;23.30;27.60
80214;DHT22;69531;37.974;23.708;2023-05-07T00:16:03;23.30;27.60
80214;DHT22;69531;37.974;23.708;2023-05-07T00:18:29;23.30;27.60
80214;DHT22;69531;37.974;23.708;2023-05-07T00:20:55;23.30;27.60
80214;DHT22;69531;37.974;23.708;2023-05-07T00:23:22;23.30;27.60
80214;DHT22;69531;37.974;23.708;2023-05-07T00:25:47;23.30;27.60
80214;DHT22;69531;37.974;23.708;2023-05-07T00:28:13;23.30;27.60
80214;DHT22;69531;37.974;23.708;2023-05-07T00:30:39;23.30;27.70
80214;DHT22;69531;37.974;23.708;2023-05-07T00:33:04;23.30;27.70
80214;DHT22;69531;37.974;23.708;2023-05-07T00:35:30;23.30;27.70
80214;DHT22;69531;37.974;23.708;2023-05-07T00:37:56;23.30;27.70
80214;DHT22;69531;37.974;23.708;2023-05-07T00:40:22;23.30;27.70
80214;DHT22;69531;37.974;23.708;2023-05-07T00:42:47;23.30;27.70
80214;DHT22;69531;37.974;23.708;2023-05-07T00:45:15;23.30;27.70
80214;DHT22;69531;37.974;23.708;2023-05-07T00:47:41;23.30;27.70
80214;DHT22;69531;37.974;23.708;2023-05-07T00:50:08;23.30;27.70
80214;DHT22;69531;37.974;23.708;2023-05-07T00:52:35;23.30;27.80
80214;DHT22;69531;37.974;23.708;2023-05-07T00:55:06;23.30;27.70
80214;DHT22;69531;37.974;23.708;2023-05-07T00:57:40;23.30;27.70
80214;DHT22;69531;37.974;23.708;2023-05-07T01:00:08;23.30;27.70
80214;DHT22;69531;37.974;23.708;2023-05-07T01:02:35;23.30;27.70
80214;DHT22;69531;37.974;23.708;2023-05-07T01:05:03;23.30;28.70
80214;DHT22;69531;37.974;23.708;2023-05-07T01:07:32;23.30;27.80
80214;DHT22;69531;37.974;23.708;2023-05-07T01:09:58;23.30;27.80
80214;DHT22;69531;37.974;23.708;2023-05-07T01:12:25;23.30;27.80
80214;DHT22;69531;37.974;23.708;2023-05-07T01:14:51;23.30;27.80
80214;DHT22;69531;37.974;23.708;2023-05-07T01:17:17;23.30;27.80
80214;DHT22;69531;37.974;23.708;2023-05-07T01:19:43;23.30;27.80
80214;DHT22;69531;37.974;23.708;2023-05-07T01:22:10;23.30;27.80
80214;DHT22;69531;37.974;23.708;2023-05-07T01:24:40;23.30;27.80
80214;DHT22;69531;37.974;23.708;2023-05-07T01:27:06;23.30;27.80
80214;DHT22;69531;37.974;23.708;2023-05-07T01:29:32;23.30;27.80
80214;DHT22;69531;37.974;23.708;2023-05-07T01:31:59;23.30;27.80
80214;DHT22;69531;37.974;23.708;2023-05-07T01:34:27;23.30;27.80
80214;DHT22;69531;37.974;23.708;2023-05-07T01:36:54;23.30;27.80
80214;DHT22;69531;37.974;23.708;2023-05-07T01:39:24;23.30;27.80
80214;DHT22;69531;37.974;23.708;2023-05-07T01:41:50;23.30;27.80
80214;DHT22;69531;37.974;23.708;2023-05-07T01:44:16;23.30;27.80
80214;DHT22;69531;37.974;23.708;2023-05-07T01:46:43;23.30;27.80
80214;DHT22;69531;37.974;23.708;2023-05-07T01:49:10;23.30;27.80
80214;DHT22;69531;37.974;23.708;2023-05-07T01:51:36;23.30;27.80
80214;DHT22;69531;37.974;23.708;2023-05-07T01:54:02;23.30;27.80
80214;DHT22;69531;37.974;23.708;2023-05-07T01:56:27;23.30;27.80
80214;DHT22;69531;37.974;23.708;2023-05-07T01:58:53;23.30;27.80
80214;DHT22;69531;37.974;23.708;2023-05-07T02:01:19;23.30;27.80
80214;DHT22;69531;37.974;23.708;2023-05-07T02:03:44;23.30;27.90
80214;DHT22;69531;37.974;23.708;2023-05-07T02:06:10;23.30;27.80
80214;DHT22;69531;37.974;23.708;2023-05-07T02:08:36;23.30;27.90
80214;DHT22;69531;37.974;23.708;2023-05-07T02:11:02;23.30;27.90
80214;DHT22;69531;37.974;23.708;2023-05-07T02:13:32;23.30;27.90
80214;DHT22;69531;37.974;23.708;2023-05-07T02:15:58;23.30;27.80
80214;DHT22;69531;37.974;23.708;2023-05-07T02:18:24;23.30;27.90
80214;DHT22;69531;37.974;23.708;2023-05-07T02:20:50;23.30;27.90
80214;DHT22;69531;37.974;23.708;2023-05-07T02:23:15;23.30;27.90
80214;DHT22;69531;37.974;23.708;2023-05-07T02:25:41;23.30;27.90
80214;DHT22;69531;37.974;23.708;2023-05-07T02:28:07;23.30;27.90
80214;DHT22;69531;37.974;23.708;2023-05-07T02:30:32;23.30;27.90
80214;DHT22;69531;37.974;23.708;2023-05-07T02:32:58;23.30;27.90
80214;DHT22;69531;37.974;23.708;2023-05-07T02:35:25;23.30;28.80
80214;DHT22;69531;37.974;23.708;2023-05-07T02:37:51;23.30;27.90
80214;DHT22;69531;37.974;23.708;2023-05-07T02:40:17;23.30;27.90
80214;DHT22;69531;37.974;23.708;2023-05-07T02:42:42;23.30;27.90
80214;DHT22;69531;37.974;23.708;2023-05-07T02:45:08;23.30;27.90
80214;DHT22;69531;37.974;23.708;2023-05-07T02:47:34;23.30;27.90
80214;DHT22;69531;37.974;23.708;2023-05-07T02:50:00;23.30;27.90
80214;DHT22;69531;37.974;23.708;2023-05-07T02:52:26;23.30;27.90
80214;DHT22;69531;37.974;23.708;2023-05-07T02:54:52;23.30;27.90
80214;DHT22;69531;37.974;23.708;2023-05-07T02:57:17;23.30;27.90
80214;DHT22;69531;37.974;23.708;2023-05-07T02:59:43;23.30;27.90
80214;DHT22;69531;37.974;23.708;2023-05-07T03:02:09;23.30;28.00
80214;DHT22;69531;37.974;23.708;2023-05-07T03:04:35;23.30;27.90
80214;DHT22;69531;37.974;23.708;2023-05-07T03:07:01;23.30;27.90
80214;DHT22;69531;37.974;23.708;2023-05-07T03:09:27;23.30;27.90
80214;DHT22;69531;37.974;23.708;2023-05-07T03:11:52;23.30;27.90
80214;DHT22;69531;37.974;23.708;2023-05-07T03:14:18;23.30;27.90
80214;DHT22;69531;37.974;23.708;2023-05-07T03:16:44;23.30;27.90
80214;DHT22;69531;37.974;23.708;2023-05-07T03:19:09;23.30;27.90
80214;DHT22;69531;37.974;23.708;2023-05-07T03:21:35;23.30;27.90
80214;DHT22;69531;37.974;23.708;2023-05-07T03:24:01;23.30;27.90
80214;DHT22;69531;37.974;23.708;2023-05-07T03:26:26;23.30;27.90
80214;DHT22;69531;37.974;23.708;2023-05-07T03:28:52;23.30;27.90
80214;DHT22;69531;37.974;23.708;2023-05-07T03:31:18;23.30;27.90
80214;DHT22;69531;37.974;23.708;2023-05-07T03:33:51;23.30;27.90
80214;DHT22;69531;37.974;23.708;2023-05-07T03:36:17;23.30;27.90
80214;DHT22;69531;37.974;23.708;2023-05-07T03:38:43;23.30;27.90
80214;DHT22;69531;37.974;23.708;2023-05-07T03:41:09;23.30;27.90
80214;DHT22;69531;37.974;23.708;2023-05-07T03:43:34;23.30;27.90
80214;DHT22;69531;37.974;23.708;2023-05-07T03:46:00;23.30;27.90
80214;DHT22;69531;37.974;23.708;2023-05-07T03:48:26;23.30;28.30
80214;DHT22;69531;37.974;23.708;2023-05-07T03:50:52;23.30;27.90
80214;DHT22;69531;37.974;23.708;2023-05-07T03:53:17;23.30;27.90
80214;DHT22;69531;37.974;23.708;2023-05-07T03:55:43;23.30;27.80
80214;DHT22;69531;37.974;23.708;2023-05-07T03:58:09;23.30;27.80
80214;DHT22;69531;37.974;23.708;2023-05-07T04:00:34;23.30;27.80
80214;DHT22;69531;37.974;23.708;2023-05-07T04:03:04;23.30;27.70
80214;DHT22;69531;37.974;23.708;2023-05-07T04:05:30;23.30;27.70
80214;DHT22;69531;37.974;23.708;2023-05-07T04:07:58;23.40;27.80
80214;DHT22;69531;37.974;23.708;2023-05-07T04:10:23;23.40;27.70
80214;DHT22;69531;37.974;23.708;2023-05-07T04:12:49;23.40;28.50
80214;DHT22;69531;37.974;23.708;2023-05-07T04:15:15;23.50;27.60
80214;DHT22;69531;37.974;23.708;2023-05-07T04:17:41;23.60;27.40
80214;DHT22;69531;37.974;23.708;2023-05-07T04:20:09;23.90;27.10
80214;DHT22;69531;37.974;23.708;2023-05-07T04:22:36;24.20;26.60
80214;DHT22;69531;37.974;23.708;2023-05-07T04:25:02;24.50;26.30
80214;DHT22;69531;37.974;23.708;2023-05-07T04:27:28;24.70;25.80
80214;DHT22;69531;37.974;23.708;2023-05-07T04:29:54;25.00;25.40
80214;DHT22;69531;37.974;23.708;2023-05-07T04:32:22;25.20;25.10
80214;DHT22;69531;37.974;23.708;2023-05-07T04:34:47;25.50;24.80
80214;DHT22;69531;37.974;23.708;2023-05-07T04:37:13;25.70;24.50
80214;DHT22;69531;37.974;23.708;2023-05-07T04:39:39;26.00;24.20
80214;DHT22;69531;37.974;23.708;2023-05-07T04:42:05;26.20;23.90
80214;DHT22;69531;37.974;23.708;2023-05-07T04:44:34;26.50;23.70
80214;DHT22;69531;37.974;23.708;2023-05-07T04:47:00;26.70;23.50
80214;DHT22;69531;37.974;23.708;2023-05-07T04:49:26;26.70;23.20
80214;DHT22;69531;37.974;23.708;2023-05-07T04:51:52;26.60;23.20
80214;DHT22;69531;37.974;23.708;2023-05-07T04:54:17;26.30;23.40
80214;DHT22;69531;37.974;23.708;2023-05-07T04:56:43;26.00;23.70
80214;DHT22;69531;37.974;23.708;2023-05-07T04:59:09;25.70;24.10
80214;DHT22;69531;37.974;23.708;2023-05-07T05:01:35;25.60;24.30
80214;DHT22;69531;37.974;23.708;2023-05-07T05:04:00;25.40;24.60
80214;DHT22;69531;37.974;23.708;2023-05-07T05:06:26;25.20;24.70
80214;DHT22;69531;37.974;23.708;2023-05-07T05:08:52;25.20;24.90
80214;DHT22;69531;37.974;23.708;2023-05-07T05:11:17;25.10;25.10
80214;DHT22;69531;37.974;23.708;2023-05-07T05:13:43;25.00;25.20
80214;DHT22;69531;37.974;23.708;2023-05-07T05:16:09;24.90;25.30
80214;DHT22;69531;37.974;23.708;2023-05-07T05:18:34;24.90;25.40
80214;DHT22;69531;37.974;23.708;2023-05-07T05:21:00;24.80;25.40
80214;DHT22;69531;37.974;23.708;2023-05-07T05:23:26;24.80;25.60
80214;DHT22;69531;37.974;23.708;2023-05-07T05:25:58;24.80;25.60
80214;DHT22;69531;37.974;23.708;2023-05-07T05:28:24;24.80;25.70
80214;DHT22;69531;37.974;23.708;2023-05-07T05:30:50;24.80;25.70
80214;DHT22;69531;37.974;23.708;2023-05-07T05:33:16;24.80;25.80
80214;DHT22;69531;37.974;23.708;2023-05-07T05:35:42;24.80;25.90
80214;DHT22;69531;37.974;23.708;2023-05-07T05:38:08;24.80;25.90
80214;DHT22;69531;37.974;23.708;2023-05-07T05:40:33;24.80;25.90
80214;DHT22;69531;37.974;23.708;2023-05-07T05:42:59;24.80;26.00
80214;DHT22;69531;37.974;23.708;2023-05-07T05:45:25;24.80;26.00
80214;DHT22;69531;37.974;23.708;2023-05-07T05:47:51;24.80;26.00
80214;DHT22;69531;37.974;23.708;2023-05-07T05:50:17;24.80;26.10
80214;DHT22;69531;37.974;23.708;2023-05-07T05:52:43;24.80;26.00
80214;DHT22;69531;37.974;23.708;2023-05-07T05:55:09;24.80;26.10
80214;DHT22;69531;37.974;23.708;2023-05-07T05:57:35;24.80;26.10
80214;DHT22;69531;37.974;23.708;2023-05-07T06:00:01;24.70;26.00
80214;DHT22;69531;37.974;23.708;2023-05-07T06:02:28;24.80;26.00
80214;DHT22;69531;37.974;23.708;2023-05-07T06:04:54;24.80;26.00
80214;DHT22;69531;37.974;23.708;2023-05-07T06:07:19;24.80;26.00
80214;DHT22;69531;37.974;23.708;2023-05-07T06:09:45;24.80;26.00
80214;DHT22;69531;37.974;23.708;2023-05-07T06:12:11;24.80;26.00
80214;DHT22;69531;37.974;23.708;2023-05-07T06:14:37;24.80;26.00
80214;DHT22;69531;37.974;23.708;2023-05-07T06:17:03;24.80;26.00
80214;DHT22;69531;37.974;23.708;2023-05-07T06:19:29;24.80;26.10
80214;DHT22;69531;37.974;23.708;2023-05-07T06:21:54;24.80;26.10
80214;DHT22;69531;37.974;23.708;2023-05-07T06:24:22;24.80;26.10
80214;DHT22;69531;37.974;23.708;2023-05-07T06:26:48;24.80;26.10
80214;DHT22;69531;37.974;23.708;2023-05-07T06:29:13;24.80;26.10
80214;DHT22;69531;37.974;23.708;2023-05-07T06:31:39;24.80;26.10
80214;DHT22;69531;37.974;23.708;2023-05-07T06:34:05;24.70;26.00
80214;DHT22;69531;37.974;23.708;2023-05-07T06:36:30;24.80;26.10
80214;DHT22;69531;37.974;23.708;2023-05-07T06:38:56;24.80;26.10
80214;DHT22;69531;37.974;23.708;2023-05-07T06:41:22;24.70;26.00
80214;DHT22;69531;37.974;23.708;2023-05-07T06:43:48;24.70;26.00
80214;DHT22;69531;37.974;23.708;2023-05-07T06:46:13;24.70;26.00
80214;DHT22;69531;37.974;23.708;2023-05-07T06:48:39;24.70;26.00
80214;DHT22;69531;37.974;23.708;2023-05-07T06:51:05;24.70;26.00
80214;DHT22;69531;37.974;23.708;2023-05-07T06:53:30;24.70;26.00
80214;DHT22;69531;37.974;23.708;2023-05-07T06:55:56;24.70;25.90
80214;DHT22;69531;37.974;23.708;2023-05-07T06:58:22;24.70;25.90
80214;DHT22;69531;37.974;23.708;2023-05-07T07:00:48;24.70;25.90
80214;DHT22;69531;37.974;23.708;2023-05-07T07:03:14;24.70;25.90
80214;DHT22;69531;37.974;23.708;2023-05-07T07:05:43;24.70;25.90
80214;DHT22;69531;37.974;23.708;2023-05-07T07:08:09;24.70;25.90
80214;DHT22;69531;37.974;23.708;2023-05-07T07:10:35;24.70;25.90
80214;DHT22;69531;37.974;23.708;2023-05-07T07:13:01;24.60;25.80
80214;DHT22;69531;37.974;23.708;2023-05-07T07:15:27;24.60;25.80
80214;DHT22;69531;37.974;23.708;2023-05-07T07:17:52;24.60;25.80
80214;DHT22;69531;37.974;23.708;2023-05-07T07:20:18;24.60;25.70
80214;DHT22;69531;37.974;23.708;2023-05-07T07:22:44;24.60;25.80
80214;DHT22;69531;37.974;23.708;2023-05-07T07:25:10;24.60;25.80
80214;DHT22;69531;37.974;23.708;2023-05-07T07:27:36;24.60;25.70
80214;DHT22;69531;37.974;23.708;2023-05-07T07:30:02;24.60;25.70
80214;DHT22;69531;37.974;23.708;2023-05-07T07:32:28;24.50;25.70
80214;DHT22;69531;37.974;23.708;2023-05-07T07:34:54;24.50;25.70
80214;DHT22;69531;37.974;23.708;2023-05-07T07:37:20;24.60;25.70
80214;DHT22;69531;37.974;23.708;2023-05-07T07:39:45;24.60;25.70
80214;DHT22;69531;37.974;23.708;2023-05-07T07:42:11;24.50;25.60
80214;DHT22;69531;37.974;23.708;2023-05-07T07:44:37;24.50;25.60
80214;DHT22;69531;37.974;23.708;2023-05-07T07:47:04;24.50;25.60
80214;DHT22;69531;37.974;23.708;2023-05-07T07:49:30;24.50;25.60
80214;DHT22;69531;37.974;23.708;2023-05-07T07:51:56;24.50;25.60
80214;DHT22;69531;37.974;23.708;2023-05-07T07:54:24;24.50;25.60
80214;DHT22;69531;37.974;23.708;2023-05-07T07:56:49;24.50;25.60
80214;DHT22;69531;37.974;23.708;2023-05-07T07:59:15;24.50;25.60
80214;DHT22;69531;37.974;23.708;2023-05-07T08:01:44;24.40;25.60
80214;DHT22;69531;37.974;23.708;2023-05-07T08:04:10;24.50;25.60
80214;DHT22;69531;37.974;23.708;2023-05-07T08:06:36;24.40;25.60
80214;DHT22;69531;37.974;23.708;2023-05-07T08:09:02;24.40;25.60
80214;DHT22;69531;37.974;23.708;2023-05-07T08:11:28;24.40;25.60
80214;DHT22;69531;37.974;23.708;2023-05-07T08:13:54;24.40;25.60
80214;DHT22;69531;37.974;23.708;2023-05-07T08:16:20;24.40;25.60
80214;DHT22;69531;37.974;23.708;2023-05-07T08:18:46;24.40;25.60
80214;DHT22;69531;37.974;23.708;2023-05-07T08:21:12;24.40;25.60
80214;DHT22;69531;37.974;23.708;2023-05-07T08:23:37;24.40;25.60
80214;DHT22;69531;37.974;23.708;2023-05-07T08:26:03;24.30;25.50
80214;DHT22;69531;37.974;23.708;2023-05-07T08:28:29;24.40;25.60
80214;DHT22;69531;37.974;23.708;2023-05-07T08:30:54;24.40;25.60
80214;DHT22;69531;37.974;23.708;2023-05-07T08:33:22;24.30;25.50
80214;DHT22;69531;37.974;23.708;2023-05-07T08:35:47;24.40;25.50
80214;DHT22;69531;37.974;23.708;2023-05-07T08:38:13;24.30;25.60
80214;DHT22;69531;37.974;23.708;2023-05-07T08:40:39;24.30;25.50
80214;DHT22;69531;37.974;23.708;2023-05-07T08:43:07;24.30;25.50
80214;DHT22;69531;37.974;23.708;2023-05-07T08:45:34;24.30;25.50
80214;DHT22;69531;37.974;23.708;2023-05-07T08:48:02;24.30;25.60
80214;DHT22;69531;37.974;23.708;2023-05-07T08:50:29;24.30;25.60
80214;DHT22;69531;37.974;23.708;2023-05-07T08:52:55;24.30;25.60
80214;DHT22;69531;37.974;23.708;2023-05-07T08:55:22;24.30;25.60
80214;DHT22;69531;37.974;23.708;2023-05-07T08:57:48;24.30;25.70
80214;DHT22;69531;37.974;23.708;2023-05-07T09:00:14;24.30;25.60
80214;DHT22;69531;37.974;23.708;2023-05-07T09:02:40;24.30;25.60
80214;DHT22;69531;37.974;23.708;2023-05-07T09:05:06;24.20;25.60
80214;DHT22;69531;37.974;23.708;2023-05-07T09:07:32;24.30;25.60
80214;DHT22;69531;37.974;23.708;2023-05-07T09:09:58;24.20;26.50
80214;DHT22;69531;37.974;23.708;2023-05-07T09:12:24;24.20;25.70
80214;DHT22;69531;37.974;23.708;2023-05-07T09:14:50;24.20;25.70
80214;DHT22;69531;37.974;23.708;2023-05-07T09:17:17;24.20;25.60
80214;DHT22;69531;37.974;23.708;2023-05-07T09:19:44;24.20;25.70
80214;DHT22;69531;37.974;23.708;2023-05-07T09:22:13;24.20;25.70
80214;DHT22;69531;37.974;23.708;2023-05-07T09:24:39;24.20;25.70
80214;DHT22;69531;37.974;23.708;2023-05-07T09:27:06;24.20;25.70
80214;DHT22;69531;37.974;23.708;2023-05-07T09:29:32;24.20;25.70
80214;DHT22;69531;37.974;23.708;2023-05-07T09:32:05;24.20;25.70
80214;DHT22;69531;37.974;23.708;2023-05-07T09:34:31;24.20;25.60
80214;DHT22;69531;37.974;23.708;2023-05-07T09:37:04;24.20;25.60
80214;DHT22;69531;37.974;23.708;2023-05-07T09:42:09;24.20;25.60
80214;DHT22;69531;37.974;23.708;2023-05-07T09:44:35;24.20;25.60
80214;DHT22;69531;37.974;23.708;2023-05-07T09:47:06;24.20;25.70
80214;DHT22;69531;37.974;23.708;2023-05-07T09:49:35;24.10;25.60
80214;DHT22;69531;37.974;23.708;2023-05-07T09:52:03;24.20;25.60
80214;DHT22;69531;37.974;23.708;2023-05-07T09:54:29;24.10;25.70
80214;DHT22;69531;37.974;23.708;2023-05-07T09:56:56;24.10;25.60
80214;DHT22;69531;37.974;23.708;2023-05-07T09:59:23;24.10;25.50
80214;DHT22;69531;37.974;23.708;2023-05-07T10:01:50;24.10;25.50
80214;DHT22;69531;37.974;23.708;2023-05-07T10:04:17;24.10;25.50
80214;DHT22;69531;37.974;23.708;2023-05-07T10:06:44;24.10;25.50
80214;DHT22;69531;37.974;23.708;2023-05-07T10:09:11;24.10;25.50
80214;DHT22;69531;37.974;23.708;2023-05-07T10:11:38;24.10;26.40
80214;DHT22;69531;37.974;23.708;2023-05-07T10:14:05;24.10;25.50
80214;DHT22;69531;37.974;23.708;2023-05-07T10:16:33;24.10;25.50
80214;DHT22;69531;37.974;23.708;2023-05-07T10:19:04;24.10;25.50
80214;DHT22;69531;37.974;23.708;2023-05-07T10:21:39;24.10;25.50
80214;DHT22;69531;37.974;23.708;2023-05-07T10:24:09;24.10;25.50
80214;DHT22;69531;37.974;23.708;2023-05-07T10:26:42;24.10;25.50
80214;DHT22;69531;37.974;23.708;2023-05-07T10:29:21;24.10;25.50
80214;DHT22;69531;37.974;23.708;2023-05-07T10:34:47;24.10;25.40
80214;DHT22;69531;37.974;23.708;2023-05-07T10:37:14;24.10;25.50
80214;DHT22;69531;37.974;23.708;2023-05-07T10:39:41;24.10;25.50
80214;DHT22;69531;37.974;23.708;2023-05-07T10:42:11;24.10;25.50
80214;DHT22;69531;37.974;23.708;2023-05-07T10:44:37;24.10;25.50
80214;DHT22;69531;37.974;23.708;2023-05-07T10:52:20;24.10;25.50
80214;DHT22;69531;37.974;23.708;2023-05-07T10:54:46;24.10;25.50
80214;DHT22;69531;37.974;23.708;2023-05-07T10:57:34;24.10;25.50
80214;DHT22;69531;37.974;23.708;2023-05-07T11:00:40;24.10;25.40
80214;DHT22;69531;37.974;23.708;2023-05-07T11:05:29;24.10;25.50
80214;DHT22;69531;37.974;23.708;2023-05-07T11:08:02;24.10;25.50
80214;DHT22;69531;37.974;23.708;2023-05-07T11:13:12;24.10;25.40
80214;DHT22;69531;37.974;23.708;2023-05-07T11:15:44;24.10;25.50
80214;DHT22;69531;37.974;23.708;2023-05-07T11:18:11;24.00;26.30
80214;DHT22;69531;37.974;23.708;2023-05-07T11:26:04;24.10;25.40
80214;DHT22;69531;37.974;23.708;2023-05-07T11:28:31;24.10;25.40
80214;DHT22;69531;37.974;23.708;2023-05-07T11:30:57;24.10;25.40
80214;DHT22;69531;37.974;23.708;2023-05-07T11:33:23;24.10;25.30
80214;DHT22;69531;37.974;23.708;2023-05-07T11:35:56;24.10;25.40
80214;DHT22;69531;37.974;23.708;2023-05-07T11:38:22;24.10;25.40
80214;DHT22;69531;37.974;23.708;2023-05-07T11:40:52;24.10;25.30
80214;DHT22;69531;37.974;23.708;2023-05-07T11:43:18;24.10;25.40
80214;DHT22;69531;37.974;23.708;2023-05-07T11:45:47;24.10;25.40
80214;DHT22;69531;37.974;23.708;2023-05-07T11:48:14;24.10;25.40
80214;DHT22;69531;37.974;23.708;2023-05-07T11:53:33;24.10;25.30
80214;DHT22;69531;37.974;23.708;2023-05-07T11:56:15;24.10;25.30
80214;DHT22;69531;37.974;23.708;2023-05-07T11:58:41;24.10;25.30
80214;DHT22;69531;37.974;23.708;2023-05-07T12:01:09;24.00;25.30
80214;DHT22;69531;37.974;23.708;2023-05-07T12:03:36;24.00;25.40
80214;DHT22;69531;37.974;23.708;2023-05-07T12:06:05;24.00;25.30
80214;DHT22;69531;37.974;23.708;2023-05-07T12:08:31;24.00;25.40
80214;DHT22;69531;37.974;23.708;2023-05-07T12:10:56;24.00;25.30
80214;DHT22;69531;37.974;23.708;2023-05-07T12:13:24;24.00;25.30
80214;DHT22;69531;37.974;23.708;2023-05-07T12:15:55;24.10;25.40
80214;DHT22;69531;37.974;23.708;2023-05-07T12:18:21;24.00;25.30
80214;DHT22;69531;37.974;23.708;2023-05-07T12:20:48;24.00;25.30
80214;DHT22;69531;37.974;23.708;2023-05-07T12:23:14;24.00;25.30
80214;DHT22;69531;37.974;23.708;2023-05-07T12:25:41;24.00;25.30
80214;DHT22;69531;37.974;23.708;2023-05-07T12:28:15;24.00;25.20
80214;DHT22;69531;37.974;23.708;2023-05-07T12:30:49;24.00;25.30
80214;DHT22;69531;37.974;23.708;2023-05-07T12:33:20;24.00;25.20
80214;DHT22;69531;37.974;23.708;2023-05-07T12:35:49;24.00;25.40
80214;DHT22;69531;37.974;23.708;2023-05-07T12:38:16;24.00;25.30
80214;DHT22;69531;37.974;23.708;2023-05-07T12:40:44;24.00;25.30
80214;DHT22;69531;37.974;23.708;2023-05-07T12:43:21;24.00;25.30
80214;DHT22;69531;37.974;23.708;2023-05-07T12:45:49;24.00;25.20
80214;DHT22;69531;37.974;23.708;2023-05-07T12:48:16;24.00;25.30
80214;DHT22;69531;37.974;23.708;2023-05-07T12:50:42;24.00;25.30
80214;DHT22;69531;37.974;23.708;2023-05-07T12:53:10;24.00;25.30
80214;DHT22;69531;37.974;23.708;2023-05-07T12:55:50;24.00;25.20
80214;DHT22;69531;37.974;23.708;2023-05-07T13:00:42;24.00;25.30
80214;DHT22;69531;37.974;23.708;2023-05-07T13:03:09;24.00;25.20
80214;DHT22;69531;37.974;23.708;2023-05-07T13:05:34;24.00;25.20
80214;DHT22;69531;37.974;23.708;2023-05-07T13:08:00;24.00;25.20
80214;DHT22;69531;37.974;23.708;2023-05-07T13:10:27;24.00;25.20
80214;DHT22;69531;37.974;23.708;2023-05-07T13:12:52;24.00;25.10
80214;DHT22;69531;37.974;23.708;2023-05-07T13:15:19;24.00;25.20
80214;DHT22;69531;37.974;23.708;2023-05-07T13:17:44;24.00;25.10
80214;DHT22;69531;37.974;23.708;2023-05-07T13:20:10;24.00;25.20
80214;DHT22;69531;37.974;23.708;2023-05-07T13:22:40;24.00;25.20
80214;DHT22;69531;37.974;23.708;2023-05-07T13:25:07;24.00;25.20
80214;DHT22;69531;37.974;23.708;2023-05-07T13:27:32;24.00;25.20
80214;DHT22;69531;37.974;23.708;2023-05-07T13:30:03;24.00;25.20
80214;DHT22;69531;37.974;23.708;2023-05-07T13:32:28;24.00;25.20
80214;DHT22;69531;37.974;23.708;2023-05-07T13:34:55;24.00;25.10
80214;DHT22;69531;37.974;23.708;2023-05-07T13:37:21;24.00;25.20
80214;DHT22;69531;37.974;23.708;2023-05-07T13:39:46;24.00;25.20
80214;DHT22;69531;37.974;23.708;2023-05-07T13:42:12;24.00;25.10
80214;DHT22;69531;37.974;23.708;2023-05-07T13:44:38;24.00;25.10
80214;DHT22;69531;37.974;23.708;2023-05-07T13:47:03;24.00;25.00
80214;DHT22;69531;37.974;23.708;2023-05-07T13:49:29;24.00;25.10
80214;DHT22;69531;37.974;23.708;2023-05-07T13:51:55;24.00;25.10
80214;DHT22;69531;37.974;23.708;2023-05-07T13:54:21;24.00;25.00
80214;DHT22;69531;37.974;23.708;2023-05-07T13:56:46;24.00;25.00
80214;DHT22;69531;37.974;23.708;2023-05-07T13:59:12;24.00;25.00
80214;DHT22;69531;37.974;23.708;2023-05-07T14:01:40;24.00;25.00
80214;DHT22;69531;37.974;23.708;2023-05-07T14:04:05;24.00;25.00
80214;DHT22;69531;37.974;23.708;2023-05-07T14:06:31;24.00;25.00
80214;DHT22;69531;37.974;23.708;2023-05-07T14:08:57;24.00;25.00
80214;DHT22;69531;37.974;23.708;2023-05-07T14:11:23;24.00;25.00
80214;DHT22;69531;37.974;23.708;2023-05-07T14:13:49;24.00;25.00
80214;DHT22;69531;37.974;23.708;2023-05-07T14:16:15;24.00;25.00
80214;DHT22;69531;37.974;23.708;2023-05-07T14:18:40;24.00;25.00
80214;DHT22;69531;37.974;23.708;2023-05-07T14:21:06;24.00;25.00
80214;DHT22;69531;37.974;23.708;2023-05-07T14:23:32;24.00;25.00
80214;DHT22;69531;37.974;23.708;2023-05-07T14:25:58;24.00;25.00
80214;DHT22;69531;37.974;23.708;2023-05-07T14:28:24;24.00;25.00
80214;DHT22;69531;37.974;23.708;2023-05-07T14:30:50;24.00;24.90
80214;DHT22;69531;37.974;23.708;2023-05-07T14:33:15;24.00;25.00
80214;DHT22;69531;37.974;23.708;2023-05-07T14:35:41;24.00;25.20
80214;DHT22;69531;37.974;23.708;2023-05-07T14:38:10;24.00;25.00
80214;DHT22;69531;37.974;23.708;2023-05-07T14:40:36;24.00;25.00
80214;DHT22;69531;37.974;23.708;2023-05-07T14:43:01;24.00;24.90
80214;DHT22;69531;37.974;23.708;2023-05-07T14:45:27;24.00;24.90
80214;DHT22;69531;37.974;23.708;2023-05-07T14:47:53;23.90;24.80
80214;DHT22;69531;37.974;23.708;2023-05-07T14:50:19;24.00;24.90
80214;DHT22;69531;37.974;23.708;2023-05-07T14:52:44;24.00;24.90
80214;DHT22;69531;37.974;23.708;2023-05-07T14:55:10;23.90;24.90
80214;DHT22;69531;37.974;23.708;2023-05-07T14:57:36;23.90;24.80
80214;DHT22;69531;37.974;23.708;2023-05-07T15:00:03;24.00;24.90
80214;DHT22;69531;37.974;23.708;2023-05-07T15:02:30;24.00;24.80
80214;DHT22;69531;37.974;23.708;2023-05-07T15:04:55;24.00;24.80
80214;DHT22;69531;37.974;23.708;2023-05-07T15:07:21;24.00;24.90
80214;DHT22;69531;37.974;23.708;2023-05-07T15:09:47;24.00;25.60
80214;DHT22;69531;37.974;23.708;2023-05-07T15:12:13;23.90;24.80
80214;DHT22;69531;37.974;23.708;2023-05-07T15:14:39;23.90;24.70
80214;DHT22;69531;37.974;23.708;2023-05-07T15:17:05;23.90;24.80
80214;DHT22;69531;37.974;23.708;2023-05-07T15:19:31;23.90;24.70
80214;DHT22;69531;37.974;23.708;2023-05-07T15:21:57;24.00;24.70
80214;DHT22;69531;37.974;23.708;2023-05-07T15:24:23;23.90;24.70
80214;DHT22;69531;37.974;23.708;2023-05-07T15:26:51;23.90;24.70
80214;DHT22;69531;37.974;23.708;2023-05-07T15:29:17;23.90;24.70
80214;DHT22;69531;37.974;23.708;2023-05-07T15:31:42;24.00;24.70
80214;DHT22;69531;37.974;23.708;2023-05-07T15:34:08;23.90;24.70
80214;DHT22;69531;37.974;23.708;2023-05-07T15:36:35;23.90;24.70
80214;DHT22;69531;37.974;23.708;2023-05-07T15:39:02;23.90;24.70